615VGS Twitter

615VGS Facebook

Staff Login


Staff who require login details should contact the MCO.

Join 615 VGS

 

 

615 VGS Partner

bigatmo

Course Photos 2013

KY Aviation Wx

[source: ADDS]
METAR
EGKB 020850Z 06003KT 9999 BKN006 14/12 Q1024 =
TAF
TAF EGKB 020800Z 0209/0218 06006KT 9999 BKN008 BECMG 0209/0212 SCT025 =
SR / SS: 05:14 / 18:43 UTC (Sunrise/Sunset 2014-09-02)